Blairsville, Illinois
Current Conditions -  °F | °C
As of 10:10 PM on Wednesday 17 Dec 2014 (Local Time) from KMWA Reporting Station
Overcast Overcast  
Wind Chill: 30°   Ceiling: 10000
Heat Index: 34°   Visibility: 10mi
Dew Point: 30°   Wind: 5mph
Humidity: 87%   Direction: 30°NNE
Pressure: 30.3"   Gusts: NA
Location:  37.7927°N, 89.0997°W
Report Text: KMWA 180410Z AUTO 03004KT 10SM OVC100 01/M01 A3030 RMK AO2
Loading
Personal Weather Stations






























Interactive Weather Map New forecast layout! Learn more

10-Day Weather Forecast

Advertisements
Track Severe Weather on mobile